METAR AND TAF INFORMATION
METAR FOR SAZN
ADDS - METARS form results

(0051 UTC 24 April 2018)
Data provider http://aviationweather.gov/adds/metars/
 
METAR text: SAZN 240000Z 14002KT 9999 SCT035 SCT100 16/03 Q1021
Conditions at: SAZN (NEUQUEN AIRPORT , AR) observed 0000 UTC 24 April 2018
Temperature: 16.0°C (61°F)
Dewpoint: 3.0°C (37°F) [RH = 42%]
Pressure (altimeter): 30.15 inches Hg (1021.0 mb)
Winds: from the SE (140 degrees) at 2 MPH (2 knots; 1.0 m/s)
Visibility: 6 or more miles (10+ km)
Ceiling: at least 12,000 feet AGL
Clouds: scattered clouds at 3500 feet AGL
scattered clouds at 10000 feet AGL
Weather: no significant weather observed at this time

Forecast for: SAZN (NEUQUEN AIRPORT , AR)
Text: TAF SAZN 232300Z 2400/2424 11010KT 9999 SCT035 SCT090 TX16/2419Z TN13/2409Z
Forecast period: 0000 to 0400 UTC 24 April 2018
Forecast type: FROM: standard forecast or significant change
Winds: from the ESE (110 degrees) at 12 MPH (10 knots; 5.2 m/s)
Visibility: 6 or more miles (10+ km)
Clouds: scattered clouds at 3500 feet AGL
scattered clouds at 9000 feet AGL
Weather: no significant weather forecast for this period
Forecast for: SAZN (NEUQUEN AIRPORT , AR)
Text: TAF SAZN 232300Z 2400/2424 11010KT 9999 SCT035 SCT090 TX16/2419Z TN13/2409Z
Forecast period: 0000 to 0400 UTC 24 April 2018
Forecast type: FROM: standard forecast or significant change
Winds: from the ESE (110 degrees) at 12 MPH (10 knots; 5.2 m/s)
Visibility: 6 or more miles (10+ km)
Clouds: scattered clouds at 3500 feet AGL
scattered clouds at 9000 feet AGL
Weather: no significant weather forecast for this period
Forecast for: SAZN (NEUQUEN AIRPORT , AR)
Text: TAF SAZN 232300Z 2400/2424 11010KT 9999 SCT035 SCT090 TX16/2419Z TN13/2409Z
Forecast period: 0400 to 1100 UTC 24 April 2018
Forecast type: BECOMING: Conditions expected to become as follows by 0600 UTC 24 April 2018
Winds: from the SE (140 degrees) at 17 MPH (15 knots; 7.8 m/s)
Visibility: 4 miles (6 km)
Ceiling: 2000 feet AGL
Clouds: broken clouds at 2000 feet AGL
overcast cloud deck at 5000 feet AGL
Weather: RA  (rain)
Forecast for: SAZN (NEUQUEN AIRPORT , AR)
Text: TAF SAZN 232300Z 2400/2424 11010KT 9999 SCT035 SCT090 TX16/2419Z TN13/2409Z
Forecast period: 0400 to 1100 UTC 24 April 2018
Forecast type: BECOMING: Conditions expected to become as follows by 0600 UTC 24 April 2018
Winds: from the SE (140 degrees) at 17 MPH (15 knots; 7.8 m/s)
Visibility: 4 miles (6 km)
Ceiling: 2000 feet AGL
Clouds: broken clouds at 2000 feet AGL
overcast cloud deck at 5000 feet AGL
Weather: RA  (rain)
Forecast for: SAZN (NEUQUEN AIRPORT , AR)
Text: TAF SAZN 232300Z 2400/2424 11010KT 9999 SCT035 SCT090 TX16/2419Z TN13/2409Z
Forecast period: 1100 UTC 24 April 2018 to 0000 UTC 25 April 2018
Forecast type: BECOMING: Conditions expected to become as follows by 1300 UTC 24 April 2018
Winds: from the ESE (110 degrees) at 12 MPH (10 knots; 5.2 m/s)
Visibility: 6 or more miles (10+ km)
Weather: NSW  (no significant weather)
Forecast for: SAZN (NEUQUEN AIRPORT , AR)
Text: TAF SAZN 232300Z 2400/2424 11010KT 9999 SCT035 SCT090 TX16/2419Z TN13/2409Z
Forecast period: 1100 UTC 24 April 2018 to 0000 UTC 25 April 2018
Forecast type: BECOMING: Conditions expected to become as follows by 1300 UTC 24 April 2018
Winds: from the ESE (110 degrees) at 12 MPH (10 knots; 5.2 m/s)
Visibility: 6 or more miles (10+ km)
Weather: NSW  (no significant weather)

 AIRPORT MAP

 RUNWAY INFORMATION
Runway 9 Runway length 8432 ft Runway width 148 ft
Runway elevation 895 ft Runway displaced threshold 0 ft Runway heading 90
Runway 27 Runway length 8432 ft Runway width 148 ft
Runway elevation 886 ft Runway displaced threshold 0 ft Runway heading 270

 AIRPORT FREQUENCIES
Type TWR Name NEUQUEN TW Frequency 119.3 MHZ

 AIRPORT NEAR NAVIGATION AIDS
Type NDB Name Presidente Peron Frequency 307 KHZ
Type VOR-DME Name Neuquen Frequency 116700 KHZ
Type NDB Name Presidente Peron Frequency 332 KHZ